createdAt,value
2022-10-17T00:00:10.413Z,42.00
2022-10-17T00:03:03.071Z,41.20
2022-10-17T00:05:35.605Z,42.70
2022-10-17T00:08:08.278Z,40.00
2022-10-17T00:10:43.609Z,39.80
2022-10-17T00:13:16.275Z,41.10
2022-10-17T00:15:51.711Z,41.40
2022-10-17T00:18:25.794Z,39.00
2022-10-17T00:20:58.449Z,38.10
2022-10-17T00:23:31.985Z,39.10
2022-10-17T00:26:07.872Z,40.40
2022-10-17T00:28:40.795Z,40.80
2022-10-17T00:31:13.182Z,40.30
2022-10-17T00:33:47.289Z,41.00
2022-10-17T00:36:21.889Z,41.50
2022-10-17T00:39:01.498Z,40.90
2022-10-17T00:41:36.521Z,42.20
2022-10-17T00:44:24.669Z,40.30
2022-10-17T00:46:57.180Z,40.00
2022-10-17T00:49:32.999Z,39.80
2022-10-17T00:52:10.738Z,39.70
2022-10-17T00:54:44.704Z,38.10
2022-10-17T00:57:17.257Z,38.30
2022-10-17T00:59:55.036Z,38.80
2022-10-17T01:02:29.171Z,40.10
2022-10-17T01:05:03.218Z,40.20
2022-10-17T01:07:37.316Z,42.30
2022-10-17T01:10:11.527Z,42.80
2022-10-17T01:13:02.045Z,41.80
2022-10-17T01:15:46.630Z,41.90
2022-10-17T01:18:25.743Z,42.20
2022-10-17T01:21:28.248Z,40.10
2022-10-17T01:24:47.934Z,40.50
2022-10-17T01:27:43.306Z,39.50
2022-10-17T01:30:50.586Z,40.10
2022-10-17T01:33:37.006Z,40.80
2022-10-17T01:36:14.191Z,42.70
2022-10-17T01:38:52.224Z,40.60
2022-10-17T01:41:31.274Z,41.70
2022-10-17T01:44:06.510Z,42.70
2022-10-17T01:46:40.123Z,42.60
2022-10-17T01:49:17.398Z,42.40
2022-10-17T01:51:52.736Z,43.80
2022-10-17T01:54:28.888Z,43.60
2022-10-17T01:57:03.997Z,43.30
2022-10-17T01:59:40.339Z,43.20
2022-10-17T02:02:12.955Z,43.30
2022-10-17T02:04:45.881Z,43.50
2022-10-17T02:07:20.569Z,42.60
2022-10-17T02:09:56.544Z,43.00
2022-10-17T02:12:48.883Z,42.30
2022-10-17T02:15:52.865Z,43.50
2022-10-17T02:18:43.185Z,45.80
2022-10-17T02:21:22.530Z,49.40
2022-10-17T02:23:59.791Z,52.30
2022-10-17T02:26:38.733Z,54.10
2022-10-17T02:29:15.906Z,48.00
2022-10-17T02:31:50.089Z,46.60
2022-10-17T02:34:26.177Z,44.20
2022-10-17T02:37:02.585Z,47.30
2022-10-17T02:39:37.095Z,49.30
2022-10-17T02:42:12.830Z,50.00
2022-10-17T02:44:47.222Z,50.50
2022-10-17T02:47:26.784Z,50.60
2022-10-17T02:50:04.371Z,52.50
2022-10-17T02:52:42.818Z,51.40
2022-10-17T02:55:18.146Z,51.50
2022-10-17T02:57:52.059Z,49.80
2022-10-17T03:00:25.376Z,49.10
2022-10-17T03:02:59.690Z,48.60
2022-10-17T03:05:33.109Z,49.20
2022-10-17T03:08:06.366Z,49.50
2022-10-17T03:10:41.029Z,50.00
2022-10-17T03:13:14.387Z,49.30
2022-10-17T03:15:47.294Z,51.50
2022-10-17T03:18:23.837Z,53.20
2022-10-17T03:20:56.419Z,52.50
2022-10-17T03:23:30.946Z,54.80
2022-10-17T03:26:06.596Z,56.50
2022-10-17T03:28:38.659Z,54.60
2022-10-17T03:31:12.372Z,54.90
2022-10-17T03:33:45.421Z,54.50
2022-10-17T03:36:19.153Z,53.30
2022-10-17T03:38:55.534Z,49.60
2022-10-17T03:41:28.742Z,44.40
2022-10-17T03:44:02.299Z,44.70
2022-10-17T03:46:38.359Z,43.60
2022-10-17T03:49:12.740Z,44.40
2022-10-17T03:51:45.063Z,43.50
2022-10-17T03:54:18.125Z,44.50
2022-10-17T03:56:52.335Z,46.40
2022-10-17T03:59:26.898Z,44.30
2022-10-17T04:02:00.006Z,44.70
2022-10-17T04:04:34.061Z,43.90
2022-10-17T04:07:08.226Z,43.90
2022-10-17T04:09:40.128Z,44.00
2022-10-17T04:12:13.473Z,43.40
2022-10-17T04:14:45.249Z,42.20
2022-10-17T04:17:43.709Z,42.20
2022-10-17T04:20:16.905Z,43.10
2022-10-17T04:22:51.942Z,43.60
2022-10-17T04:25:54.486Z,43.50
2022-10-17T04:29:20.164Z,45.90
2022-10-17T04:31:57.011Z,46.80
2022-10-17T04:34:56.648Z,46.60
2022-10-17T04:37:35.862Z,45.90
2022-10-17T04:40:16.647Z,44.70
2022-10-17T04:42:49.899Z,45.80
2022-10-17T04:45:31.117Z,46.70
2022-10-17T04:48:34.570Z,45.20
2022-10-17T04:51:12.876Z,44.00
2022-10-17T04:54:11.298Z,47.10
2022-10-17T04:57:11.424Z,49.20
2022-10-17T04:59:44.406Z,47.20
2022-10-17T05:03:04.719Z,46.50
2022-10-17T05:05:41.096Z,48.20
2022-10-17T05:11:39.081Z,48.40
2022-10-17T05:14:15.060Z,49.60
2022-10-17T05:20:21.257Z,48.40
2022-10-17T05:22:53.834Z,48.90
2022-10-17T05:29:21.093Z,49.40
2022-10-17T05:31:57.893Z,53.80
2022-10-17T05:34:36.817Z,53.60
2022-10-17T05:42:37.776Z,49.10
2022-10-17T05:45:14.645Z,50.50
2022-10-17T05:48:11.752Z,49.90
2022-10-17T05:50:58.665Z,49.00
2022-10-17T05:57:02.859Z,47.50
2022-10-17T05:59:41.147Z,49.40
2022-10-17T06:03:04.013Z,46.80
2022-10-17T06:05:40.686Z,46.40
2022-10-17T06:08:23.809Z,46.10
2022-10-17T06:10:59.352Z,44.80
2022-10-17T06:16:59.115Z,41.30
2022-10-17T06:19:32.705Z,41.80
2022-10-17T06:22:30.169Z,40.50
2022-10-17T06:25:05.693Z,40.60
2022-10-17T06:28:28.492Z,41.10
2022-10-17T06:31:13.021Z,40.10
2022-10-17T06:33:51.810Z,39.30
2022-10-17T06:36:29.722Z,41.00
2022-10-17T06:39:53.630Z,39.10
2022-10-17T06:42:31.622Z,38.80
2022-10-17T06:45:33.083Z,40.00
2022-10-17T06:48:12.155Z,39.80
2022-10-17T06:50:44.523Z,37.70
2022-10-17T06:53:46.986Z,37.70
2022-10-17T06:56:46.303Z,36.70
2022-10-17T07:02:42.446Z,37.10
2022-10-17T07:06:08.343Z,37.80
2022-10-17T07:11:45.742Z,35.10
2022-10-17T07:14:23.512Z,33.90
2022-10-17T07:16:56.847Z,32.10
2022-10-17T07:19:57.757Z,30.80
2022-10-17T07:22:56.274Z,29.40
2022-10-17T07:25:57.051Z,28.30
2022-10-17T07:36:10.351Z,28.10
2022-10-17T07:38:49.997Z,27.50
2022-10-17T07:42:10.993Z,26.80
2022-10-17T07:49:01.476Z,26.10
2022-10-17T07:52:04.771Z,25.70
2022-10-17T07:58:05.076Z,24.20
2022-10-17T08:00:52.381Z,24.30
2022-10-17T08:03:55.336Z,26.00
2022-10-17T08:06:33.968Z,25.90
2022-10-17T08:13:01.130Z,27.00
2022-10-17T08:15:35.207Z,28.70
2022-10-17T08:18:10.890Z,27.80
2022-10-17T08:20:46.630Z,29.90
2022-10-17T08:24:07.681Z,27.00
2022-10-17T08:27:56.339Z,26.10
2022-10-17T08:30:34.665Z,25.60
2022-10-17T08:33:36.722Z,24.80
2022-10-17T08:36:38.497Z,23.60
2022-10-17T08:39:36.238Z,23.40
2022-10-17T08:43:04.781Z,21.60
2022-10-17T08:45:43.105Z,23.40
2022-10-17T08:49:32.084Z,20.00
2022-10-17T08:52:57.860Z,18.00
2022-10-17T08:55:54.775Z,17.60
2022-10-17T08:58:44.778Z,17.10
2022-10-17T09:01:36.442Z,16.20
2022-10-17T09:05:05.190Z,17.40
2022-10-17T09:11:04.619Z,17.70
2022-10-17T09:14:29.265Z,16.90
2022-10-17T09:17:36.730Z,17.40
2022-10-17T09:20:26.088Z,17.20
2022-10-17T09:23:33.704Z,18.50
2022-10-17T09:26:07.702Z,17.60
2022-10-17T09:28:49.880Z,15.90
2022-10-17T09:32:28.498Z,14.80
2022-10-17T09:35:11.724Z,14.90
2022-10-17T09:37:48.927Z,13.30
2022-10-17T09:40:29.217Z,12.00
2022-10-17T09:43:12.716Z,10.80
2022-10-17T09:46:00.349Z,10.40
2022-10-17T09:51:52.167Z,10.10
2022-10-17T09:54:31.949Z,10.70
2022-10-17T10:05:03.278Z,9.70
2022-10-17T10:08:14.140Z,9.10
2022-10-17T10:10:47.310Z,9.00
2022-10-17T10:13:46.215Z,9.40
2022-10-17T10:16:58.248Z,9.40
2022-10-17T10:20:03.493Z,9.30
2022-10-17T10:23:14.052Z,9.00
2022-10-17T10:26:24.661Z,9.60
2022-10-17T10:30:15.648Z,9.20
2022-10-17T10:33:41.339Z,9.30
2022-10-17T10:37:07.761Z,9.50
2022-10-17T10:40:07.776Z,10.50
2022-10-17T10:43:05.717Z,9.50
2022-10-17T10:46:07.299Z,9.40
2022-10-17T10:49:04.127Z,12.00
2022-10-17T10:51:48.521Z,9.20
2022-10-17T10:54:30.435Z,9.90
2022-10-17T10:57:41.371Z,9.50
2022-10-17T11:00:53.316Z,9.10
2022-10-17T11:04:07.994Z,9.80
2022-10-17T11:07:14.111Z,9.60
2022-10-17T11:10:22.655Z,10.60
2022-10-17T11:13:29.685Z,9.60
2022-10-17T11:16:19.672Z,9.80
2022-10-17T11:18:54.451Z,10.00
2022-10-17T11:21:36.082Z,9.70
2022-10-17T11:24:16.471Z,9.40
2022-10-17T11:26:58.814Z,9.10
2022-10-17T11:29:33.415Z,9.90
2022-10-17T11:32:09.471Z,10.20
2022-10-17T11:34:47.445Z,9.80
2022-10-17T11:37:21.551Z,10.00
2022-10-17T11:39:56.384Z,9.90
2022-10-17T11:42:32.384Z,10.30
2022-10-17T11:45:10.028Z,10.00
2022-10-17T11:47:48.439Z,9.90
2022-10-17T11:53:18.838Z,10.40
2022-10-17T11:55:52.591Z,10.10
2022-10-17T11:58:34.118Z,10.30
2022-10-17T12:01:18.825Z,9.50
2022-10-17T12:04:05.977Z,10.70
2022-10-17T12:07:00.332Z,9.70
2022-10-17T12:09:41.241Z,11.10
2022-10-17T12:12:28.615Z,9.60
2022-10-17T12:15:31.170Z,9.50
2022-10-17T12:18:05.291Z,9.50
2022-10-17T12:20:40.163Z,9.00
2022-10-17T12:23:32.386Z,9.40
2022-10-17T12:26:06.156Z,9.30
2022-10-17T12:28:45.476Z,10.30
2022-10-17T12:31:32.664Z,9.70
2022-10-17T12:34:17.190Z,9.70
2022-10-17T12:36:50.853Z,9.20
2022-10-17T12:39:53.489Z,9.60
2022-10-17T12:42:54.191Z,8.60
2022-10-17T12:45:56.218Z,9.10
2022-10-17T12:49:07.072Z,8.30
2022-10-17T12:52:10.356Z,8.40
2022-10-17T12:54:53.533Z,9.40
2022-10-17T12:57:39.069Z,8.10
2022-10-17T13:00:22.391Z,7.60
2022-10-17T13:03:03.899Z,7.10
2022-10-17T13:05:37.967Z,7.70
2022-10-17T13:08:18.873Z,7.70
2022-10-17T13:10:53.476Z,7.90
2022-10-17T13:13:39.274Z,7.40
2022-10-17T13:16:15.318Z,7.60
2022-10-17T13:18:55.361Z,8.10
2022-10-17T13:21:29.849Z,7.90
2022-10-17T13:24:03.089Z,8.10
2022-10-17T13:26:34.894Z,8.30
2022-10-17T13:29:11.747Z,8.60
2022-10-17T13:31:46.416Z,7.30
2022-10-17T13:34:22.329Z,7.70
2022-10-17T13:36:57.065Z,7.20
2022-10-17T13:39:45.234Z,7.20
2022-10-17T13:42:28.182Z,7.10
2022-10-17T13:45:02.858Z,6.90
2022-10-17T13:47:41.467Z,6.90
2022-10-17T13:50:43.038Z,6.90
2022-10-17T13:53:28.501Z,6.90
2022-10-17T13:56:27.467Z,6.50
2022-10-17T13:59:06.117Z,7.20
2022-10-17T14:01:40.536Z,6.50
2022-10-17T14:04:19.886Z,6.90
2022-10-17T14:06:54.481Z,6.70
2022-10-17T14:09:28.805Z,6.90
2022-10-17T14:12:05.667Z,6.60
2022-10-17T14:14:58.351Z,6.80
2022-10-17T14:17:33.290Z,7.00
2022-10-17T14:20:40.681Z,6.40
2022-10-17T14:23:22.063Z,6.70
2022-10-17T14:26:08.677Z,6.80
2022-10-17T14:28:43.574Z,7.20
2022-10-17T14:31:26.149Z,6.80
2022-10-17T14:33:58.392Z,6.60
2022-10-17T14:36:41.927Z,6.80
2022-10-17T14:39:23.922Z,6.90
2022-10-17T14:42:02.014Z,6.50
2022-10-17T14:44:38.459Z,8.60
2022-10-17T14:47:42.151Z,6.90
2022-10-17T14:50:26.370Z,6.90
2022-10-17T14:53:06.956Z,6.80
2022-10-17T14:55:40.900Z,7.00
2022-10-17T14:58:30.702Z,6.50
2022-10-17T15:01:06.767Z,6.40
2022-10-17T15:03:39.145Z,6.50
2022-10-17T15:06:19.701Z,6.70
2022-10-17T15:08:52.432Z,6.10
2022-10-17T15:11:25.264Z,7.00
2022-10-17T15:13:57.471Z,7.20
2022-10-17T15:16:34.979Z,6.20
2022-10-17T15:19:07.929Z,6.60
2022-10-17T15:21:46.931Z,6.50
2022-10-17T15:24:24.034Z,8.20
2022-10-17T15:26:56.801Z,7.20
2022-10-17T15:29:33.212Z,7.30
2022-10-17T15:32:11.394Z,7.80
2022-10-17T15:34:45.775Z,7.90
2022-10-17T15:37:22.495Z,8.20
2022-10-17T15:39:57.527Z,7.10
2022-10-17T15:42:32.324Z,7.00
2022-10-17T15:45:06.000Z,9.20
2022-10-17T15:47:39.791Z,8.60
2022-10-17T15:50:16.178Z,9.20
2022-10-17T15:52:50.894Z,7.80
2022-10-17T15:55:22.887Z,9.20
2022-10-17T15:57:57.116Z,8.20
2022-10-17T16:00:30.197Z,8.30
2022-10-17T16:03:07.547Z,9.30
2022-10-17T16:05:40.670Z,10.80
2022-10-17T16:08:14.886Z,9.40
2022-10-17T16:10:47.576Z,9.70
2022-10-17T16:13:21.545Z,9.60
2022-10-17T16:15:55.096Z,9.60
2022-10-17T16:18:28.480Z,10.30
2022-10-17T16:21:06.512Z,11.30
2022-10-17T16:23:42.749Z,23.50
2022-10-17T16:26:17.702Z,32.20
2022-10-17T16:28:51.355Z,40.90
2022-10-17T16:31:28.926Z,57.30
2022-10-17T16:34:04.397Z,23.90
2022-10-17T16:36:37.916Z,41.10
2022-10-17T16:39:11.219Z,43.80
2022-10-17T16:41:46.593Z,35.90
2022-10-17T16:44:19.252Z,34.70
2022-10-17T16:46:51.081Z,42.30
2022-10-17T16:49:28.026Z,20.80
2022-10-17T16:52:01.105Z,20.30
2022-10-17T16:54:35.485Z,22.80
2022-10-17T16:57:09.261Z,77.40
2022-10-17T16:59:42.480Z,53.00
2022-10-17T17:02:17.559Z,54.70
2022-10-17T17:04:57.055Z,36.30
2022-10-17T17:07:31.063Z,18.30
2022-10-17T17:10:07.906Z,61.70
2022-10-17T17:12:39.901Z,23.40
2022-10-17T17:15:13.510Z,31.60
2022-10-17T17:17:52.481Z,15.10
2022-10-17T17:20:27.804Z,17.70
2022-10-17T17:23:01.006Z,17.50
2022-10-17T17:25:33.719Z,19.20
2022-10-17T17:28:11.291Z,22.90
2022-10-17T17:30:45.185Z,21.50
2022-10-17T17:33:20.543Z,15.60
2022-10-17T17:35:57.506Z,16.10
2022-10-17T17:38:32.021Z,16.60
2022-10-17T17:41:06.558Z,16.20
2022-10-17T17:43:41.714Z,19.70
2022-10-17T17:46:16.838Z,26.00
2022-10-17T17:48:52.268Z,40.60
2022-10-17T17:51:29.395Z,59.10
2022-10-17T17:54:04.395Z,36.80
2022-10-17T17:56:36.088Z,59.90
2022-10-17T17:59:08.753Z,39.30
2022-10-17T18:01:44.431Z,53.10
2022-10-17T18:04:17.640Z,37.80
2022-10-17T18:06:50.055Z,35.40
2022-10-17T18:09:23.680Z,45.00
2022-10-17T18:11:57.841Z,57.60
2022-10-17T18:14:30.891Z,43.80
2022-10-17T18:17:05.227Z,36.80
2022-10-17T18:19:43.040Z,24.20
2022-10-17T18:22:19.842Z,33.10
2022-10-17T18:24:54.300Z,26.70
2022-10-17T18:27:27.288Z,20.90
2022-10-17T18:30:00.975Z,21.40
2022-10-17T18:32:37.057Z,20.50
2022-10-17T18:35:11.037Z,21.10
2022-10-17T18:37:44.589Z,22.10
2022-10-17T18:40:19.061Z,21.70
2022-10-17T18:42:51.502Z,20.10
2022-10-17T18:45:25.204Z,19.00
2022-10-17T18:47:58.879Z,21.40
2022-10-17T18:50:33.188Z,17.20
2022-10-17T18:53:09.347Z,17.40
2022-10-17T18:58:24.858Z,20.00
2022-10-17T19:00:58.028Z,16.80
2022-10-17T19:03:30.757Z,15.80
2022-10-17T19:06:07.946Z,14.00
2022-10-17T19:08:41.103Z,12.80
2022-10-17T19:11:17.833Z,15.50
2022-10-17T19:13:50.629Z,16.00
2022-10-17T19:16:24.929Z,16.20
2022-10-17T19:19:04.889Z,21.40
2022-10-17T19:21:39.519Z,39.80
2022-10-17T19:24:16.188Z,62.50
2022-10-17T19:26:50.249Z,70.20
2022-10-17T19:29:26.266Z,74.80
2022-10-17T19:31:59.415Z,48.70
2022-10-17T19:34:31.607Z,31.80
2022-10-17T19:37:07.354Z,38.70
2022-10-17T19:39:41.888Z,39.20
2022-10-17T19:42:16.091Z,33.90
2022-10-17T19:44:51.844Z,32.00
2022-10-17T19:47:29.301Z,29.10
2022-10-17T19:52:43.438Z,26.90
2022-10-17T19:55:17.003Z,34.20
2022-10-17T19:57:50.999Z,32.10
2022-10-17T20:00:28.697Z,28.70
2022-10-17T20:03:04.052Z,25.70
2022-10-17T20:05:39.388Z,25.40
2022-10-17T20:08:16.520Z,27.70
2022-10-17T20:10:49.768Z,26.40
2022-10-17T20:13:23.289Z,24.10
2022-10-17T20:15:59.622Z,24.40
2022-10-17T20:18:32.752Z,21.60
2022-10-17T20:21:09.327Z,23.90
2022-10-17T20:23:44.036Z,27.10
2022-10-17T20:26:37.133Z,27.60
2022-10-17T20:29:18.281Z,32.50
2022-10-17T20:31:51.942Z,32.50
2022-10-17T20:34:28.616Z,27.40
2022-10-17T20:37:02.719Z,28.20
2022-10-17T20:39:38.326Z,28.50
2022-10-17T20:42:11.276Z,29.40
2022-10-17T20:47:39.841Z,31.60
2022-10-17T20:50:12.447Z,35.10
2022-10-17T20:52:44.626Z,27.80
2022-10-17T20:55:18.946Z,28.30
2022-10-17T20:57:52.108Z,29.20
2022-10-17T21:00:25.892Z,32.80
2022-10-17T21:02:59.804Z,50.60
2022-10-17T21:05:33.783Z,44.10
2022-10-17T21:08:08.948Z,37.80
2022-10-17T21:10:42.706Z,29.90
2022-10-17T21:13:17.079Z,31.50
2022-10-17T21:15:49.914Z,34.70
2022-10-17T21:18:23.748Z,54.20
2022-10-17T21:20:56.966Z,37.00
2022-10-17T21:23:29.657Z,45.30
2022-10-17T21:26:08.513Z,57.60
2022-10-17T21:28:43.732Z,38.60
2022-10-17T21:31:18.736Z,37.70
2022-10-17T21:33:52.644Z,40.70
2022-10-17T21:36:25.911Z,41.40
2022-10-17T21:38:59.086Z,39.00
2022-10-17T21:41:35.494Z,38.90
2022-10-17T21:44:11.506Z,36.70
2022-10-17T21:46:45.412Z,49.90
2022-10-17T21:49:21.161Z,45.10
2022-10-17T21:51:54.865Z,47.50
2022-10-17T22:01:46.300Z,59.30
2022-10-17T22:04:20.047Z,51.80
2022-10-17T22:06:53.302Z,53.70
2022-10-17T22:09:27.260Z,58.40
2022-10-17T22:12:01.245Z,53.10
2022-10-17T22:14:34.930Z,44.40
2022-10-17T22:17:07.353Z,49.30
2022-10-17T22:19:39.971Z,51.80
2022-10-17T22:22:12.785Z,50.80
2022-10-17T22:24:44.894Z,45.20
2022-10-17T22:27:19.218Z,46.20
2022-10-17T22:29:54.321Z,47.90
2022-10-17T22:32:27.820Z,48.10
2022-10-17T22:35:05.057Z,52.80
2022-10-17T22:37:38.383Z,57.70
2022-10-17T22:40:11.978Z,59.60
2022-10-17T22:42:45.208Z,58.50
2022-10-17T22:45:17.754Z,55.40
2022-10-17T22:47:49.941Z,60.70
2022-10-17T22:50:24.085Z,60.90
2022-10-17T22:52:56.465Z,53.60
2022-10-17T22:55:29.968Z,50.80
2022-10-17T22:58:05.229Z,45.80
2022-10-17T23:00:37.188Z,43.50
2022-10-17T23:03:09.977Z,41.10
2022-10-17T23:05:42.386Z,46.40
2022-10-17T23:08:16.683Z,36.00
2022-10-17T23:10:50.116Z,41.50
2022-10-17T23:13:22.621Z,44.50
2022-10-17T23:15:56.662Z,42.50
2022-10-17T23:21:06.973Z,43.50
2022-10-17T23:23:39.488Z,44.00
2022-10-17T23:26:17.014Z,41.20
2022-10-17T23:28:51.145Z,42.40
2022-10-17T23:31:24.284Z,44.20
2022-10-17T23:33:56.202Z,45.10
2022-10-17T23:36:28.317Z,45.00
2022-10-17T23:39:01.071Z,44.30
2022-10-17T23:41:34.587Z,50.80
2022-10-17T23:44:08.465Z,48.80
2022-10-17T23:46:40.860Z,48.20
2022-10-17T23:49:15.329Z,46.70
2022-10-17T23:51:50.225Z,47.80
2022-10-17T23:54:22.454Z,46.90
2022-10-17T23:56:56.972Z,48.00
2022-10-17T23:59:29.599Z,47.70
